Port Washington, NY (11050)

11:33 PM EST on December 24, 2014 (GMT -0500)
New Salem Port Washington | Change Station
CLOSE
Current Station
Personal Weather Station
Location: Port Washington, NY
Elevation: 128 ft
Nearby Weather Stations
Active Advisory: Dense Fog Advisory Active Notice: Record Report

Elev 128 ft 40.82 °N, 73.68 °W | Updated 6 seconds ago

Fog
Fog
54.0 °F
Feels Like 54.0 °F
N
4.0
Wind Variable Wind from SSE
Gusts 0.0 mph

Today
High -- | Low -- °F
--% Chance of Precip.
Yesterday
High -- | Low -- °F
Precip. -- in
7:17 AM 4:31 PM
Waxing Crescent, 13% visible
Pressure 29.57 in
Visibility 0.2 miles
Clouds
Dew Point 53 °F
Humidity 97%
Rainfall 0.48 in
Snow Depth Not available.
UV Not available.
Pollen .10 out of 12
Air Quality Not available.
Flu Activity Not available.
METAR KLGA 250351Z 22005KT 1/4SM R04/P6000FT FG VV002 12/11 A2957 RMK AO2 SFC VIS 1/2 SLP011 T01170111

More Conditions Fewer Conditions

Pressure 29.57 in
Visibility 0.2 miles
Clouds
Dew Point 53 °F
Humidity 97%
Rainfall 0.48 in
Snow Depth Not available.
UV Not available.
Pollen .10 out of 12
Air Quality Not available.
Flu Activity Not available.
METAR KLGA 250351Z 22005KT 1/4SM R04/P6000FT FG VV002 12/11 A2957 RMK AO2 SFC VIS 1/2 SLP011 T01170111

More Conditions Fewer Conditions

10-Day Weather Forecast

Almanac

Astronomy

Dec. 24, 2014 Rise Set
Actual Time
Civil Twilight
Nautical Twilight
Astronomical Twilight
Moon
Length of Visible Light
Length of Day
Tomorrow will be .
, % of the Moon is Illuminated

Today's Extremes

State Highs State Lows

Community

WunderPhotos

Upload Photos

1,780,236 photos uploaded!

WunderBlogs® & News

Nearby

Air Quality

  Air Quality AQ Index Pollutant
Not available.

Snow Depth

Station Depth Elevation

Earthquake Activity

City Distance Mag. Time & Date
Minimum magnitude displayed is 2.5.

Coastal Water Temperatures

Place Temperature

Nearby Weather Stations